Time;durP1;ratioP1;P1;durP2;ratioP2;P2;SDS_P1;SDS_P2;PMS_P1;PMS_P2;Temp;Humidity;BMP_temperature;BMP_pressure;BME280_temperature;BME280_humidity;BME280_pressure;Samples;Min_cycle;Max_cycle;Signal;HPM_P1;HPM_P2
2023/04/30 00:02:07;;;;;;;8.60;2.70;;;;;;;16.17;78.28;100081.44;5059976;28;20025;-71
2023/04/30 00:04:33;;;;;;;5.35;2.30;;;;;;;16.15;78.15;100077.06;5056588;28;20066;-71
2023/04/30 00:06:58;;;;;;;4.37;1.90;;;;;;;16.11;78.13;100072.75;5056326;28;20021;-71
2023/04/30 00:09:23;;;;;;;5.27;2.17;;;;;;;16.09;78.22;100077.25;5065297;28;20063;-71
2023/04/30 00:11:49;;;;;;;5.30;1.70;;;;;;;16.04;78.24;100072.06;5059796;28;20035;-70
2023/04/30 00:14:14;;;;;;;8.80;1.83;;;;;;;16.04;78.51;100074.72;5056328;28;20119;-71
2023/04/30 00:16:40;;;;;;;4.38;1.58;;;;;;;16.03;78.25;100068.53;5072358;28;20127;-71
2023/04/30 00:19:05;;;;;;;4.00;1.50;;;;;;;16.02;78.40;100065.94;5056458;28;20038;-71
2023/04/30 00:21:31;;;;;;;4.37;1.70;;;;;;;16.01;78.25;100065.06;5057252;28;20025;-70
2023/04/30 00:23:59;;;;;;;5.97;1.90;;;;;;;16.02;78.50;100061.47;5066352;28;20259;-71
2023/04/30 00:26:24;;;;;;;5.60;2.00;;;;;;;16.01;78.57;100059.75;5056213;28;20477;-71
2023/04/30 00:28:49;;;;;;;4.00;1.77;;;;;;;15.99;78.39;100050.94;5056366;28;20064;-71
2023/04/30 00:31:15;;;;;;;5.07;2.10;;;;;;;15.98;78.43;100056.31;5055799;28;20032;-70
2023/04/30 00:33:40;;;;;;;4.07;1.73;;;;;;;15.98;78.38;100043.03;5066563;28;20790;-70
2023/04/30 00:36:06;;;;;;;4.90;2.37;;;;;;;15.96;78.43;100040.44;5075974;28;20036;-70
2023/04/30 00:38:31;;;;;;;6.23;2.60;;;;;;;15.95;78.34;100041.34;5076186;28;20028;-70
2023/04/30 00:40:57;;;;;;;4.77;2.30;;;;;;;15.93;78.21;100030.78;5073704;28;20027;-71
2023/04/30 00:43:22;;;;;;;5.72;2.80;;;;;;;15.91;78.76;100037.03;5076042;28;20036;-71
2023/04/30 00:45:48;;;;;;;4.90;2.50;;;;;;;15.91;78.66;100037.03;5076013;28;20111;-71
2023/04/30 00:48:13;;;;;;;6.77;2.83;;;;;;;15.89;78.33;100041.53;5075920;28;20036;-71
2023/04/30 00:50:40;;;;;;;6.55;2.80;;;;;;;15.88;78.50;100026.50;5072324;28;20029;-70
2023/04/30 00:53:05;;;;;;;7.53;3.37;;;;;;;15.86;78.41;100036.28;5055812;28;20037;-70
2023/04/30 00:55:31;;;;;;;6.70;3.60;;;;;;;15.83;78.68;100033.72;5055893;28;20083;-70
2023/04/30 00:57:58;;;;;;;9.67;4.17;;;;;;;15.84;78.78;100031.00;5055817;28;20029;-71
2023/04/30 01:00:24;;;;;;;8.68;4.13;;;;;;;15.83;78.80;100028.41;5060630;28;20028;-70
2023/04/30 01:02:49;;;;;;;9.10;4.77;;;;;;;15.82;78.77;100027.53;5038038;28;20040;-70
2023/04/30 01:05:15;;;;;;;10.73;5.70;;;;;;;15.80;79.05;100026.72;5056017;28;20020;-70
2023/04/30 01:07:44;;;;;;;8.75;4.88;;;;;;;15.79;78.87;100027.63;5037944;28;20029;-70
2023/04/30 01:10:11;;;;;;;10.53;6.27;;;;;;;15.76;78.98;100028.56;5067537;28;20163;-70
2023/04/30 01:12:45;;;;;;;11.77;5.85;;;;;;;15.76;79.02;100028.56;5055703;28;20029;-71
2023/04/30 01:15:49;;;;;;;11.70;6.53;;;;;;;15.73;79.33;100033.13;5055712;28;20029;-70
2023/04/30 01:18:28;;;;;;;10.68;6.22;;;;;;;15.72;79.04;100026.06;5013213;28;20036;-70
2023/04/30 01:21:01;;;;;;;9.95;6.22;;;;;;;15.71;79.38;100022.53;5075577;28;20062;-70
2023/04/30 01:23:45;;;;;;;11.03;6.80;;;;;;;15.69;79.33;100027.03;5051666;28;20028;-70
2023/04/30 01:26:48;;;;;;;14.05;7.00;;;;;;;15.65;79.42;100020.91;5037688;28;20116;-71
2023/04/30 01:29:17;;;;;;;10.73;6.35;;;;;;;15.63;79.49;100024.56;5055716;28;20029;-71
2023/04/30 01:31:43;;;;;;;9.25;6.07;;;;;;;15.60;79.36;100019.34;5055385;28;20040;-71
2023/04/30 01:34:09;;;;;;;11.47;6.20;;;;;;;15.61;79.40;100016.63;5069716;28;20476;-71
2023/04/30 01:36:40;;;;;;;10.30;6.32;;;;;;;15.62;79.28;100023.66;5076467;28;20025;-71
2023/04/30 01:39:21;;;;;;;10.07;5.40;;;;;;;15.62;79.23;100025.47;5061049;28;20055;-71
2023/04/30 01:42:01;;;;;;;10.47;5.50;;;;;;;15.62;79.24;100020.16;5067315;28;20357;-70
2023/04/30 01:45:11;;;;;;;9.82;5.25;;;;;;;15.57;79.20;100025.59;5060277;28;20101;-71
2023/04/30 01:47:55;;;;;;;8.80;5.28;;;;;;;15.60;79.35;100016.69;4995435;28;20077;-70
2023/04/30 01:50:48;;;;;;;11.55;5.38;;;;;;;15.58;79.52;100023.81;4992503;28;20432;-70
2023/04/30 01:53:23;;;;;;;8.90;5.97;;;;;;;15.59;78.97;100017.59;5039578;28;20048;-71
2023/04/30 01:55:56;;;;;;;9.00;5.67;;;;;;;15.59;79.01;100022.91;5078942;28;20043;-70
2023/04/30 01:58:24;;;;;;;9.20;5.55;;;;;;;15.57;78.87;100019.44;5078528;28;20135;-71
2023/04/30 02:00:49;;;;;;;9.73;5.55;;;;;;;15.56;79.11;100018.53;5066907;28;20036;-71
2023/04/30 02:03:15;;;;;;;9.53;5.80;;;;;;;15.51;79.17;100023.13;5058881;28;20389;-71
2023/04/30 02:05:40;;;;;;;10.10;5.10;;;;;;;15.55;79.08;100023.88;5058594;28;20476;-71
2023/04/30 02:08:06;;;;;;;8.32;5.22;;;;;;;15.54;79.07;100023.03;5058738;28;20511;-71
2023/04/30 02:10:31;;;;;;;10.00;5.20;;;;;;;15.54;78.97;100027.44;5070044;28;20497;-71
2023/04/30 02:12:57;;;;;;;9.67;5.07;;;;;;;15.52;79.17;100019.56;5040593;28;20032;-71
2023/04/30 02:15:22;;;;;;;8.85;5.10;;;;;;;15.49;78.96;100023.16;5064277;28;20032;-71
2023/04/30 02:17:48;;;;;;;8.57;5.17;;;;;;;15.50;79.00;100026.69;5053880;28;20033;-71
2023/04/30 02:20:13;;;;;;;8.07;4.80;;;;;;;15.45;79.04;100026.81;5078527;28;20031;-71
2023/04/30 02:22:38;;;;;;;9.63;4.73;;;;;;;15.45;79.07;100034.78;5078152;28;20035;-71
2023/04/30 02:25:04;;;;;;;8.02;4.65;;;;;;;15.49;78.76;100033.78;5071789;28;20393;-71
2023/04/30 02:27:31;;;;;;;8.83;4.83;;;;;;;15.49;78.90;100033.78;5058434;28;20025;-71
2023/04/30 02:29:57;;;;;;;9.18;4.78;;;;;;;15.52;78.97;100040.78;5040248;28;20025;-71
2023/04/30 02:32:23;;;;;;;9.55;5.10;;;;;;;15.50;79.01;100034.66;5057904;28;20033;-71
2023/04/30 02:34:49;;;;;;;8.57;4.65;;;;;;;15.50;79.15;100035.50;5057644;28;20055;-70
2023/04/30 02:37:14;;;;;;;6.90;4.30;;;;;;;15.52;79.13;100034.59;5078097;28;20032;-71
2023/04/30 02:39:40;;;;;;;9.00;4.65;;;;;;;15.52;78.87;100039.91;5078082;28;20385;-71
2023/04/30 02:42:06;;;;;;;8.17;4.90;;;;;;;15.49;79.18;100039.06;5076096;28;20135;-71
2023/04/30 02:44:32;;;;;;;9.02;5.38;;;;;;;15.48;79.03;100040.00;5077953;28;20028;-71
2023/04/30 02:46:58;;;;;;;9.97;4.83;;;;;;;15.47;79.13;100035.59;5077469;28;20032;-71
2023/04/30 02:49:23;;;;;;;12.50;4.78;;;;;;;15.47;79.36;100042.72;5059656;28;20114;-71
2023/04/30 02:51:49;;;;;;;7.93;4.53;;;;;;;15.44;79.23;100038.34;5046402;28;20052;-71
2023/04/30 02:54:14;;;;;;;8.18;4.22;;;;;;;15.42;79.15;100042.81;5058037;28;20028;-71
2023/04/30 02:56:40;;;;;;;7.63;4.73;;;;;;;15.42;79.43;100042.81;5057516;28;20048;-71
2023/04/30 02:59:06;;;;;;;8.27;4.70;;;;;;;15.46;79.24;100041.81;5057576;28;20064;-71
2023/04/30 03:01:31;;;;;;;6.53;3.65;;;;;;;15.46;79.19;100041.81;5061913;28;20036;-70
2023/04/30 03:04:00;;;;;;;8.77;4.90;;;;;;;15.45;79.46;100040.09;5039635;28;20493;-71
2023/04/30 03:06:25;;;;;;;7.63;4.32;;;;;;;15.47;79.17;100045.34;5057347;28;20028;-71
2023/04/30 03:08:50;;;;;;;8.07;3.73;;;;;;;15.45;79.12;100040.09;5061840;28;20031;-71
2023/04/30 03:11:16;;;;;;;7.70;3.90;;;;;;;15.44;79.20;100048.94;5063956;28;20063;-71
2023/04/30 03:13:42;;;;;;;6.97;3.97;;;;;;;15.44;79.16;100048.09;5064010;28;20047;-71
2023/04/30 03:16:07;;;;;;;7.40;3.93;;;;;;;15.44;79.20;100048.94;5071129;28;20036;-71
2023/04/30 03:18:33;;;;;;;8.45;4.20;;;;;;;15.40;79.55;100044.66;5057435;28;20032;-71
2023/04/30 03:20:58;;;;;;;9.97;4.70;;;;;;;15.39;79.32;100047.34;5039576;28;20029;-71
2023/04/30 03:23:26;;;;;;;9.13;4.70;;;;;;;15.36;79.23;100046.50;5046068;28;20060;-70
2023/04/30 03:25:52;;;;;;;7.35;4.40;;;;;;;15.38;79.36;100045.59;5063489;28;20097;-71
2023/04/30 03:28:17;;;;;;;7.50;4.70;;;;;;;15.35;79.58;100041.25;5057402;28;20524;-71
2023/04/30 03:30:43;;;;;;;10.47;5.10;;;;;;;15.35;79.59;100049.22;5057993;28;20028;-71
2023/04/30 03:33:08;;;;;;;7.80;4.83;;;;;;;15.32;79.51;100049.31;5076888;28;20271;-71
2023/04/30 03:35:34;;;;;;;8.60;5.13;;;;;;;15.33;79.43;100051.91;5077040;28;20036;-71
2023/04/30 03:38:00;;;;;;;8.93;4.70;;;;;;;15.33;79.50;100051.06;5077012;28;20024;-70
2023/04/30 03:40:25;;;;;;;10.32;5.10;;;;;;;15.32;79.38;100054.63;5076922;28;20108;-71
2023/04/30 03:42:51;;;;;;;7.30;4.55;;;;;;;15.30;79.58;100046.69;5074825;28;20025;-71
2023/04/30 03:45:16;;;;;;;10.37;5.20;;;;;;;15.30;79.46;100045.78;5076973;28;20035;-71
2023/04/30 03:47:42;;;;;;;10.00;5.37;;;;;;;15.27;79.56;100051.19;5058634;28;20099;-71
2023/04/30 03:50:08;;;;;;;10.68;5.28;;;;;;;15.28;79.41;100053.81;5076742;28;20107;-71
2023/04/30 03:52:35;;;;;;;8.43;4.82;;;;;;;15.30;79.29;100056.41;5057805;28;20059;-71
2023/04/30 03:55:01;;;;;;;10.67;4.80;;;;;;;15.31;79.53;100060.81;5056903;28;20033;-70
2023/04/30 03:57:27;;;;;;;8.27;4.57;;;;;;;15.30;79.63;100064.38;5038275;28;20035;-71
2023/04/30 03:59:52;;;;;;;8.23;5.25;;;;;;;15.32;79.40;100054.63;5041848;28;20055;-71
2023/04/30 04:02:18;;;;;;;9.53;4.60;;;;;;;15.31;79.33;100068.75;5057870;28;20025;-70
2023/04/30 04:04:43;;;;;;;7.93;4.03;;;;;;;15.33;79.36;100061.66;5056746;28;20546;-71
2023/04/30 04:07:10;;;;;;;8.82;4.93;;;;;;;15.33;79.65;100059.00;5056353;28;20029;-71
2023/04/30 04:09:35;;;;;;;7.67;4.63;;;;;;;15.34;79.41;100063.41;5049223;28;20119;-71
2023/04/30 04:12:01;;;;;;;7.88;4.18;;;;;;;15.30;79.45;100054.66;5057439;28;20075;-71
2023/04/30 04:14:27;;;;;;;8.70;4.40;;;;;;;15.31;79.39;100060.81;5043190;28;20062;-71
2023/04/30 04:16:52;;;;;;;9.55;4.65;;;;;;;15.29;79.50;100058.22;5071074;28;20076;-71
2023/04/30 04:19:17;;;;;;;8.80;4.50;;;;;;;15.27;79.58;100065.34;5038709;28;20033;-71
2023/04/30 04:21:43;;;;;;;9.40;4.70;;;;;;;15.25;79.68;100061.88;5038333;28;20513;-71
2023/04/30 04:24:09;;;;;;;8.47;4.53;;;;;;;15.25;79.55;100063.63;5068375;28;20459;-71
2023/04/30 04:26:35;;;;;;;9.07;5.53;;;;;;;15.23;79.69;100065.47;5057907;28;20433;-71
2023/04/30 04:29:02;;;;;;;9.77;5.10;;;;;;;15.20;79.72;100064.63;5074647;28;20570;-71
2023/04/30 04:31:28;;;;;;;9.97;4.67;;;;;;;15.17;79.77;100075.31;5047585;28;20036;-71
2023/04/30 04:33:57;;;;;;;8.32;4.63;;;;;;;15.18;79.94;100076.19;5068579;28;20465;-71
2023/04/30 04:36:26;;;;;;;9.13;4.70;;;;;;;15.23;79.43;100076.06;5076010;28;20032;-71
2023/04/30 04:38:52;;;;;;;10.75;4.65;;;;;;;15.24;79.69;100077.81;5076343;28;20048;-70
2023/04/30 04:41:17;;;;;;;9.38;4.60;;;;;;;15.24;79.33;100077.81;5052231;28;20120;-70
2023/04/30 04:43:43;;;;;;;7.90;3.43;;;;;;;15.23;79.59;100081.38;5056357;28;20044;-70
2023/04/30 04:46:08;;;;;;;8.97;4.43;;;;;;;15.25;79.57;100075.13;5056163;28;20033;-71
2023/04/30 04:48:33;;;;;;;10.87;4.50;;;;;;;15.23;79.53;100071.66;5056026;28;20111;-71
2023/04/30 04:50:59;;;;;;;10.13;4.83;;;;;;;15.23;79.59;100081.38;5038078;28;20291;-70
2023/04/30 04:53:25;;;;;;;9.23;4.53;;;;;;;15.22;79.65;100077.88;5056461;28;20033;-71
2023/04/30 04:55:51;;;;;;;12.63;4.57;;;;;;;15.21;79.48;100076.97;5056202;28;20032;-71
2023/04/30 04:58:16;;;;;;;8.23;4.20;;;;;;;15.21;79.77;100074.31;5055989;28;20052;-71
2023/04/30 05:00:42;;;;;;;11.18;4.35;;;;;;;15.22;79.59;100075.22;5061053;28;20039;-71
2023/04/30 05:03:08;;;;;;;9.33;4.20;;;;;;;15.23;79.58;100073.41;5056226;28;20043;-70
2023/04/30 05:05:34;;;;;;;6.90;4.25;;;;;;;15.21;79.74;100074.31;5055694;28;20084;-70
2023/04/30 05:07:59;;;;;;;8.43;4.17;;;;;;;15.21;79.67;100087.59;5056070;28;20547;-70
2023/04/30 05:10:24;;;;;;;7.97;4.07;;;;;;;15.24;79.59;100077.81;5050650;28;20404;-71
2023/04/30 05:12:50;;;;;;;8.30;4.30;;;;;;;15.25;79.61;100084.84;5059849;28;20047;-71
2023/04/30 05:15:15;;;;;;;8.93;3.93;;;;;;;15.26;79.62;100089.25;5065511;28;20377;-70
2023/04/30 05:17:41;;;;;;;10.13;4.57;;;;;;;15.27;79.69;100098.94;5074204;28;20036;-70
2023/04/30 05:20:07;;;;;;;8.50;3.97;;;;;;;15.27;79.52;100094.53;5059535;28;20056;-71
2023/04/30 05:22:33;;;;;;;7.43;4.22;;;;;;;15.26;79.46;100091.91;5059663;28;20370;-71
2023/04/30 05:24:58;;;;;;;9.60;4.50;;;;;;;15.25;79.51;100103.41;5057382;28;20101;-71
2023/04/30 05:27:24;;;;;;;7.27;4.10;;;;;;;15.23;79.37;100102.59;5079789;28;20059;-71
2023/04/30 05:29:49;;;;;;;7.83;4.00;;;;;;;15.23;79.53;100099.94;5079508;28;20028;-71
2023/04/30 05:32:14;;;;;;;6.93;3.63;;;;;;;15.23;79.63;100102.59;5062257;28;20469;-71
2023/04/30 05:34:40;;;;;;;8.33;4.13;;;;;;;15.24;79.36;100101.69;5077544;28;20027;-71
2023/04/30 05:37:05;;;;;;;7.60;4.07;;;;;;;15.23;79.58;100102.59;5079344;28;20063;-71
2023/04/30 05:39:31;;;;;;;7.77;3.77;;;;;;;15.23;79.36;100102.59;5079026;28;20095;-71
2023/04/30 05:41:56;;;;;;;8.57;3.70;;;;;;;15.24;79.56;100101.69;5049921;28;20103;-70
2023/04/30 05:44:21;;;;;;;8.57;4.00;;;;;;;15.26;79.37;100102.50;5059280;28;20108;-71
2023/04/30 05:46:47;;;;;;;7.73;4.23;;;;;;;15.24;79.48;100102.56;5059292;28;20091;-71
2023/04/30 05:49:12;;;;;;;8.97;4.33;;;;;;;15.26;79.70;100107.81;5059078;28;20476;-70
2023/04/30 05:51:37;;;;;;;7.77;4.30;;;;;;;15.24;79.36;100109.63;5062802;28;20401;-71
2023/04/30 05:54:03;;;;;;;8.03;4.90;;;;;;;15.24;79.56;100107.88;5041169;28;20029;-71
2023/04/30 05:56:28;;;;;;;8.73;4.03;;;;;;;15.23;79.42;100107.91;5058990;28;20028;-71
2023/04/30 05:58:54;;;;;;;8.33;4.53;;;;;;;15.21;79.61;100106.16;5058764;28;20073;-71
2023/04/30 06:01:20;;;;;;;9.07;4.60;;;;;;;15.18;79.42;100111.53;5063605;28;20487;-71
2023/04/30 06:03:45;;;;;;;9.50;4.88;;;;;;;15.20;79.43;100109.72;5058861;28;20194;-71
2023/04/30 06:06:11;;;;;;;8.35;4.47;;;;;;;15.21;79.43;100119.41;5040593;28;20033;-71
2023/04/30 06:08:36;;;;;;;10.27;4.17;;;;;;;15.23;79.39;100118.50;5060994;28;20028;-71
2023/04/30 06:11:03;;;;;;;7.83;4.00;;;;;;;15.25;79.56;100122.00;5049609;28;20084;-71
2023/04/30 06:13:31;;;;;;;10.25;4.47;;;;;;;15.24;79.68;100125.56;5058741;28;20516;-71
2023/04/30 06:15:56;;;;;;;8.88;4.30;;;;;;;15.26;79.28;100123.72;5080313;28;20084;-71
2023/04/30 06:18:22;;;;;;;9.53;5.03;;;;;;;15.25;79.61;100130.84;5062289;28;20107;-71
2023/04/30 06:20:47;;;;;;;12.63;5.10;;;;;;;15.24;79.40;100125.56;5070513;28;20029;-71
2023/04/30 06:23:12;;;;;;;9.47;5.47;;;;;;;15.24;79.12;100136.16;5077695;28;20035;-71
2023/04/30 06:25:38;;;;;;;9.82;5.30;;;;;;;15.24;79.65;100131.75;5067223;28;20043;-71
2023/04/30 06:28:04;;;;;;;14.83;5.67;;;;;;;15.27;79.42;100136.97;5058470;28;20037;-71
2023/04/30 06:30:30;;;;;;;10.50;5.85;;;;;;;15.30;79.34;100130.69;5045601;28;20024;-71
2023/04/30 06:32:56;;;;;;;13.20;6.00;;;;;;;15.32;79.22;100134.22;5075939;28;20028;-71
2023/04/30 06:35:21;;;;;;;13.18;6.05;;;;;;;15.31;79.22;100137.75;5078304;28;20397;-71
2023/04/30 06:37:47;;;;;;;14.00;6.30;;;;;;;15.30;79.16;100134.22;5078175;28;20032;-71
2023/04/30 06:40:12;;;;;;;11.97;6.93;;;;;;;15.27;79.17;100141.38;5078435;28;20074;-71
2023/04/30 06:42:38;;;;;;;14.68;7.53;;;;;;;15.26;79.52;100137.00;5043071;28;20481;-71
2023/04/30 06:45:07;;;;;;;14.30;6.90;;;;;;;15.24;79.39;100130.84;5058192;28;20477;-71
2023/04/30 06:47:33;;;;;;;17.67;7.70;;;;;;;15.22;79.59;100138.88;5058100;28;20393;-71
2023/04/30 06:49:59;;;;;;;13.75;6.50;;;;;;;15.25;79.39;100138.78;5060045;28;20054;-71
2023/04/30 06:52:25;;;;;;;14.33;7.77;;;;;;;15.24;79.61;100145.00;5042519;28;20017;-71
2023/04/30 06:54:51;;;;;;;16.05;8.25;;;;;;;15.25;79.46;100149.41;5058067;28;20031;-71
2023/04/30 06:57:16;;;;;;;13.63;7.60;;;;;;;15.26;79.39;100145.84;5057849;28;20409;-71
2023/04/30 06:59:41;;;;;;;14.27;7.03;;;;;;;15.26;79.62;100151.13;5060215;28;20048;-71
2023/04/30 07:02:07;;;;;;;15.70;8.25;;;;;;;15.22;79.44;100152.13;5060767;28;20028;-71
2023/04/30 07:04:32;;;;;;;20.40;8.13;;;;;;;15.26;79.34;100153.78;5057815;28;20033;-71
2023/04/30 07:07:00;;;;;;;13.07;6.63;;;;;;;15.24;79.69;100157.38;5057228;28;20025;-71
2023/04/30 07:09:29;;;;;;;15.93;6.70;;;;;;;15.26;79.73;100152.91;5067056;28;20103;-71
2023/04/30 07:11:56;;;;;;;14.57;6.63;;;;;;;15.28;79.29;100159.03;5074262;28;20036;-71
2023/04/30 07:14:21;;;;;;;13.70;6.70;;;;;;;15.31;79.35;100158.97;5077618;28;20111;-71
2023/04/30 07:16:49;;;;;;;13.93;6.70;;;;;;;15.34;78.97;100153.59;5078416;28;20549;-71
2023/04/30 07:19:14;;;;;;;11.55;5.30;;;;;;;15.40;78.88;100158.75;5059614;28;20020;-71
2023/04/30 07:21:40;;;;;;;11.27;5.33;;;;;;;15.49;78.85;100168.25;5077029;28;20020;-72
2023/04/30 07:24:05;;;;;;;11.20;5.37;;;;;;;15.59;78.08;100163.56;5066035;28;20029;-72
2023/04/30 07:26:31;;;;;;;10.73;5.90;;;;;;;15.67;78.24;100164.25;5039410;28;20448;-72
2023/04/30 07:28:56;;;;;;;10.68;5.15;;;;;;;15.74;77.89;100171.09;5057323;28;20458;-71
2023/04/30 07:31:22;;;;;;;11.97;4.70;;;;;;;15.81;77.93;100169.16;5066822;28;20078;-72
2023/04/30 07:33:49;;;;;;;10.20;4.73;;;;;;;15.86;77.52;100179.66;5076847;28;20051;-72
2023/04/30 07:36:15;;;;;;;11.18;4.60;;;;;;;15.87;76.95;100181.41;5076901;28;20559;-72
2023/04/30 07:38:41;;;;;;;8.80;4.38;;;;;;;15.83;77.14;100177.09;5077436;28;20028;-72
2023/04/30 07:41:07;;;;;;;8.67;3.97;;;;;;;15.81;76.82;100168.31;5072343;28;20103;-72
2023/04/30 07:43:32;;;;;;;8.60;3.70;;;;;;;15.84;76.81;100178.84;5039180;28;20024;-72
2023/04/30 07:45:58;;;;;;;8.20;3.90;;;;;;;15.83;76.49;100172.66;5056809;28;20079;-72
2023/04/30 07:48:23;;;;;;;9.40;3.03;;;;;;;15.94;76.71;100183.00;5057005;28;20045;-72
2023/04/30 07:50:49;;;;;;;5.83;2.43;;;;;;;16.00;75.96;100179.31;5060795;28;20061;-72
2023/04/30 07:53:14;;;;;;;5.23;2.13;;;;;;;16.05;75.48;100183.59;5056997;28;20029;-72
2023/04/30 07:55:40;;;;;;;4.53;2.00;;;;;;;16.16;75.48;100190.38;5056944;28;20133;-72
2023/04/30 07:58:05;;;;;;;6.37;2.13;;;;;;;16.22;74.60;100190.19;5056590;28;20136;-72
2023/04/30 08:00:31;;;;;;;6.27;1.90;;;;;;;16.23;74.52;100186.63;5061154;28;20028;-72
2023/04/30 08:02:59;;;;;;;5.47;1.93;;;;;;;16.23;73.89;100185.75;5056899;28;20017;-72
2023/04/30 08:05:26;;;;;;;5.55;1.90;;;;;;;16.23;74.31;100193.75;5056619;28;20053;-72
2023/04/30 08:07:52;;;;;;;6.43;2.40;;;;;;;16.15;73.94;100197.47;5057179;28;20032;-72
2023/04/30 08:10:17;;;;;;;5.20;2.10;;;;;;;16.09;74.02;100192.31;5068111;28;20032;-72
2023/04/30 08:12:43;;;;;;;6.20;2.40;;;;;;;16.05;73.86;100196.88;5045959;28;20074;-72
2023/04/30 08:15:08;;;;;;;6.50;2.70;;;;;;;15.99;73.94;100202.34;5058447;28;20039;-72
2023/04/30 08:17:34;;;;;;;5.90;2.53;;;;;;;15.95;73.92;100192.72;5072061;28;20064;-72
2023/04/30 08:20:02;;;;;;;5.63;2.97;;;;;;;15.92;74.13;100199.00;5056522;28;20045;-72
2023/04/30 08:22:28;;;;;;;7.53;2.97;;;;;;;15.90;74.16;100199.94;5030811;28;20033;-72
2023/04/30 08:24:54;;;;;;;7.50;2.70;;;;;;;15.96;73.91;100197.13;5051686;28;20050;-72
2023/04/30 08:27:20;;;;;;;5.72;2.60;;;;;;;15.96;73.94;100199.78;5056563;28;20488;-72
2023/04/30 08:29:45;;;;;;;5.87;2.50;;;;;;;15.98;73.87;100203.25;5058201;28;20028;-72
2023/04/30 08:32:10;;;;;;;8.27;2.90;;;;;;;16.00;73.85;100200.56;5076080;28;20024;-72
2023/04/30 08:34:36;;;;;;;5.07;2.60;;;;;;;15.98;73.59;100208.56;5075965;28;20030;-72
2023/04/30 08:37:01;;;;;;;8.37;3.13;;;;;;;15.96;73.89;100212.19;5076405;28;20060;-72
2023/04/30 08:39:27;;;;;;;7.90;3.40;;;;;;;15.88;73.63;100213.25;5076158;28;20090;-72
2023/04/30 08:41:56;;;;;;;6.93;3.67;;;;;;;15.87;73.42;100215.94;5065378;28;20492;-72
2023/04/30 08:44:22;;;;;;;8.73;3.92;;;;;;;15.80;73.86;100225.84;5056348;28;20108;-72
2023/04/30 08:46:57;;;;;;;9.55;3.90;;;;;;;15.78;73.93;100222.34;5059596;28;20509;-72
2023/04/30 08:49:24;;;;;;;6.75;3.58;;;;;;;15.76;74.35;100227.69;5042708;28;20036;-72
2023/04/30 08:51:49;;;;;;;9.82;5.00;;;;;;;15.69;74.85;100228.78;5064432;28;20059;-71
2023/04/30 08:54:16;;;;;;;11.87;4.90;;;;;;;15.65;75.03;100233.28;5060147;28;20397;-71
2023/04/30 08:56:43;;;;;;;10.02;5.57;;;;;;;15.59;75.21;100245.84;5060187;28;20059;-71
2023/04/30 08:59:09;;;;;;;9.10;4.72;;;;;;;15.52;75.65;100241.59;5059937;28;20508;-71
2023/04/30 09:01:34;;;;;;;13.23;4.93;;;;;;;15.49;75.68;100243.41;5064761;28;20178;-71
2023/04/30 09:04:03;;;;;;;11.57;5.17;;;;;;;15.47;75.72;100247.91;5060053;28;20025;-71
2023/04/30 09:06:28;;;;;;;11.57;4.82;;;;;;;15.45;75.85;100246.22;5060338;28;20021;-71
2023/04/30 09:08:54;;;;;;;12.20;4.90;;;;;;;15.43;75.84;100242.69;5079809;28;20035;-71
2023/04/30 09:11:27;;;;;;;9.48;4.63;;;;;;;15.44;75.91;100255.06;5066567;28;20029;-71
2023/04/30 09:13:57;;;;;;;8.20;4.10;;;;;;;15.48;76.04;100241.69;5067583;28;20032;-71
2023/04/30 09:16:24;;;;;;;9.65;3.97;;;;;;;15.53;76.00;100257.50;5066991;28;20020;-71
2023/04/30 09:18:50;;;;;;;10.07;3.63;;;;;;;15.57;75.89;100251.19;5059991;28;20031;-71
2023/04/30 09:21:15;;;;;;;11.82;4.28;;;;;;;15.59;75.92;100248.50;5059565;28;20025;-71
2023/04/30 09:24:01;;;;;;;8.37;3.60;;;;;;;15.57;75.25;100258.31;5049759;28;20029;-71
2023/04/30 09:26:31;;;;;;;11.55;3.95;;;;;;;15.61;75.68;100252.84;5043554;28;20025;-71
2023/04/30 09:28:58;;;;;;;9.77;3.80;;;;;;;15.68;75.63;100258.88;5059861;28;20572;-71
2023/04/30 09:31:25;;;;;;;10.90;4.20;;;;;;;15.72;75.50;100260.53;5069866;28;20032;-71
2023/04/30 09:33:51;;;;;;;8.15;4.18;;;;;;;15.72;75.30;100249.94;5079234;28;20067;-71
2023/04/30 09:36:16;;;;;;;9.20;3.92;;;;;;;15.71;75.25;100258.81;5079158;28;20033;-72
2023/04/30 09:38:42;;;;;;;10.33;3.97;;;;;;;15.72;75.22;100249.06;5079443;28;20027;-72
2023/04/30 09:41:24;;;;;;;9.45;4.20;;;;;;;15.73;75.60;100249.00;5074083;28;20025;-72
2023/04/30 09:43:49;;;;;;;10.70;4.50;;;;;;;15.77;75.57;100252.47;5059337;28;20037;-72
2023/04/30 09:46:18;;;;;;;8.73;4.13;;;;;;;15.76;75.04;100251.59;5059380;28;20078;-72
2023/04/30 09:48:43;;;;;;;10.50;5.07;;;;;;;15.73;75.32;100256.97;5059096;28;20029;-72
2023/04/30 09:51:09;;;;;;;12.27;5.33;;;;;;;15.73;75.45;100261.44;5063482;28;20107;-72
2023/04/30 09:53:39;;;;;;;13.63;5.63;;;;;;;15.72;75.60;100255.25;5041246;28;20033;-72
2023/04/30 09:56:07;;;;;;;13.50;6.03;;;;;;;15.73;75.33;100256.97;5058798;28;20060;-72
2023/04/30 09:58:37;;;;;;;12.05;6.20;;;;;;;15.73;75.73;100253.47;5057542;28;20049;-72
2023/04/30 10:01:06;;;;;;;13.18;6.63;;;;;;;15.75;75.61;100254.31;5064940;28;20025;-72
2023/04/30 10:03:32;;;;;;;13.35;6.40;;;;;;;15.79;75.53;100258.63;5041051;28;20025;-72
2023/04/30 10:05:58;;;;;;;13.05;7.30;;;;;;;15.80;75.73;100252.38;5072352;28;20036;-72
2023/04/30 10:08:29;;;;;;;19.60;8.70;;;;;;;15.76;75.47;100259.56;5078652;28;20051;-71
2023/04/30 10:11:03;;;;;;;19.95;8.60;;;;;;;15.78;75.78;100259.53;5068980;28;20063;-72
2023/04/30 10:13:34;;;;;;;21.38;9.60;;;;;;;15.81;75.95;100269.22;5058529;28;20036;-72
2023/04/30 10:16:06;;;;;;;16.50;8.35;;;;;;;15.81;75.53;100269.22;5068906;28;20030;-72
2023/04/30 10:18:39;;;;;;;20.45;8.68;;;;;;;15.75;75.63;100260.47;5060422;28;20035;-72
2023/04/30 10:21:11;;;;;;;15.33;8.70;;;;;;;15.77;75.87;100263.94;5058695;28;20104;-72
2023/04/30 10:23:38;;;;;;;17.60;8.88;;;;;;;15.76;76.20;100262.22;5058669;28;20389;-72
2023/04/30 10:26:04;;;;;;;20.08;9.25;;;;;;;15.81;75.92;100274.53;5058293;28;20025;-72
2023/04/30 10:28:31;;;;;;;23.47;9.60;;;;;;;15.90;76.04;100269.00;5058393;28;20029;-72
2023/04/30 10:30:57;;;;;;;23.60;9.43;;;;;;;15.97;75.72;100269.72;5064153;28;20260;-72
2023/04/30 10:34:01;;;;;;;19.45;9.43;;;;;;;15.97;75.60;100273.22;5077969;28;20108;-72
2023/04/30 10:36:43;;;;;;;18.02;9.15;;;;;;;16.01;75.53;100268.72;5077860;28;20181;-72
2023/04/30 10:39:10;;;;;;;19.88;9.95;;;;;;;16.06;75.46;100270.34;5078332;28;20033;-72
2023/04/30 10:41:35;;;;;;;19.75;9.90;;;;;;;16.13;75.30;100264.84;5069646;28;20029;-72
2023/04/30 10:44:02;;;;;;;19.63;10.37;;;;;;;16.22;74.87;100264.59;5040075;28;20029;-72
2023/04/30 10:46:27;;;;;;;18.63;8.90;;;;;;;16.32;75.04;100263.44;5058092;28;20029;-73
2023/04/30 10:48:56;;;;;;;18.23;9.20;;;;;;;16.46;74.67;100254.19;5057805;28;20481;-73
2023/04/30 10:51:22;;;;;;;18.63;8.63;;;;;;;16.52;73.58;100256.69;5044298;28;20025;-72
2023/04/30 10:53:53;;;;;;;19.00;8.93;;;;;;;16.56;73.50;100258.34;5057853;28;20033;-73
2023/04/30 10:56:31;;;;;;;19.50;9.50;;;;;;;16.56;73.27;100247.69;5057811;28;20029;-72
2023/04/30 10:59:01;;;;;;;20.77;10.50;;;;;;;16.55;73.35;100250.38;5057179;28;20056;-72
2023/04/30 11:01:27;;;;;;;20.63;9.27;;;;;;;16.54;73.25;100253.97;5070156;28;20469;-73
2023/04/30 11:04:10;;;;;;;16.33;8.57;;;;;;;16.52;72.98;100251.38;5059388;28;20043;-72
2023/04/30 11:06:54;;;;;;;15.57;7.68;;;;;;;16.51;73.18;100244.28;5077205;28;20028;-72
2023/04/30 11:09:33;;;;;;;14.52;7.85;;;;;;;16.53;73.22;100247.78;5077301;28;20071;-73
2023/04/30 11:12:27;;;;;;;20.67;8.73;;;;;;;16.50;72.61;100248.75;5059146;28;20644;-72
2023/04/30 11:15:06;;;;;;;21.85;10.50;;;;;;;16.48;72.81;100249.69;5039313;28;20082;-72
2023/04/30 11:17:32;;;;;;;18.85;8.48;;;;;;;16.46;72.67;100244.44;5054334;28;20037;-72
2023/04/30 11:20:01;;;;;;;16.83;7.15;;;;;;;16.49;72.65;100247.00;5039404;28;20032;-72
2023/04/30 11:22:34;;;;;;;13.65;7.22;;;;;;;16.57;72.50;100240.59;5057061;28;20035;-72
2023/04/30 11:25:08;;;;;;;14.47;7.53;;;;;;;16.64;72.38;100237.69;5057409;28;20028;-73